• Join FlightAware (Why Join?)
  • Login
  • US Flag 
03:58AM EST


 

Airport Tracker/Info


-or-


 

Live Flight TrackerFlight Track Log ✈ SWA2955 ✈ 12-Apr-2013 ✈ KABQ - KPHX

Flight Track Log - Related Links

Times and Time Zones

All times are in EDT time to prevent confusion due to time zone crossing. See the SWA2955 flight status page for this flight to view local times or setup timezone preferences in your user account.

Time Position Orientation Groundspeed Altitude Reporting Facility
EDT Latitude Longitude Course Direction KTS MPH feet Rate Location/Type
05:45PM 35.0122 -106.6808 245° Southwest 195 224 7,500  Level Albuquerque Center
05:46PM 35.0267 -106.7444 286° West 224 258 9,600 2,580 Climbing Albuquerque Center
05:47PM 35.0481 -106.8342 286° West 256 295 12,500 3,000 Climbing Albuquerque Center
05:48PM 35.0722 -106.9350 286° West 281 323 15,900 3,120 Climbing Albuquerque Center
05:49PM 35.0783 -107.0422 274° West 301 346 19,000 2,100 Climbing Albuquerque Center
05:50PM 35.0747 -107.1631 268° West 348 400 20,300 1,560 Climbing Albuquerque Center
05:51PM 35.0661 -107.2814 265° West 394 453 22,300 2,220 Climbing Albuquerque Center
05:52PM 35.0594 -107.4183 267° West 401 461 25,000 2,520 Climbing Albuquerque Center
05:53PM 35.0519 -107.5828 267° West 405 466 27,600 2,100 Climbing Albuquerque Center
05:54PM 35.0444 -107.7236 266° West 413 475 29,400 2,160 Climbing Albuquerque Center
05:55PM 35.0381 -107.8706 267° West 416 479 32,100 2,220 Climbing Albuquerque Center
05:56PM 35.0314 -108.0003 266° West 406 467 34,000 1,260 Climbing Albuquerque Center
05:57PM 35.0233 -108.1486 266° West 395 455 34,800 960 Climbing Albuquerque Center
05:58PM 35.0164 -108.2739 266° West 389 448 36,000 540 Climbing Albuquerque Center
05:59PM 35.0094 -108.4200 267° West 387 445 36,000  Level Albuquerque Center
06:00PM 35.0022 -108.5444 266° West 384 442 36,000  Level Albuquerque Center
06:01PM 34.9947 -108.6917 266° West 386 444 36,000  Level Albuquerque Center
06:02PM 34.9864 -108.8186 265° West 390 449 36,000  Level Albuquerque Center
06:03PM 34.9797 -108.9461 266° West 392 451 36,000  Level Albuquerque Center
06:04PM 34.9711 -109.0953 266° West 393 452 36,000  Level Albuquerque Center
06:05PM 34.9461 -109.2192 256° West 397 457 36,000  Level Albuquerque Center
06:06PM 34.8944 -109.3531 245° Southwest 390 449 36,000  Level Albuquerque Center
06:07PM 34.8511 -109.4694 246° West 393 452 36,000  Level Albuquerque Center
06:08PM 34.8011 -109.6050 246° West 392 451 36,000  Level Albuquerque Center
06:10PM 34.7581 -109.7228 246° West 395 455 36,000  Level Albuquerque Center
06:11PM 34.7069 -109.8597 246° West 397 457 36,000  Level Albuquerque Center
06:12PM 34.6633 -109.9772 246° West 399 459 36,000  Level Albuquerque Center
06:13PM 34.6203 -110.0947 246° West 397 457 36,000 -540 Level Albuquerque Center
06:14PM 34.5725 -110.2369 248° West 404 465 35,000 -1,800 Descending Albuquerque Center
06:15PM 34.5242 -110.3472 242° Southwest 391 450 32,300 -2,220 Descending Albuquerque Center
06:16PM 34.4828 -110.4692 248° West 398 458 30,500 -1,860 Descending Albuquerque Center
06:17PM 34.4389 -110.5881 246° West 390 449 28,500 -2,100 Descending Albuquerque Center
06:18PM 34.3858 -110.7250 245° Southwest 378 435 26,200 -2,040 Descending Albuquerque Center
06:19PM 34.3314 -110.8319 238° Southwest 375 432 24,300 -1,920 Descending Albuquerque Center
06:20PM 34.2583 -110.9206 225° Southwest 371 427 22,300 -1,920 Descending Albuquerque Center
06:21PM 34.1889 -111.0108 227° Southwest 368 423 20,400 -1,860 Descending Albuquerque Center
06:22PM 34.1181 -111.1017 227° Southwest 370 426 18,500 -1,980 Descending Albuquerque Center
06:23PM 34.0492 -111.1883 226° Southwest 362 417 16,400 -2,040 Descending Albuquerque Center
06:24PM 33.9814 -111.2769 227° Southwest 359 413 14,400 -2,040 Descending Albuquerque Center
06:25PM 33.9008 -111.3808 227° Southwest 353 406 12,300 -1,620 Descending Albuquerque Center
06:26PM 33.8356 -111.4544 223° Southwest 322 371 11,100 -1,080 Descending Albuquerque Center
06:27PM 33.7964 -111.5433 242° Southwest 299 344 10,100 -840 Descending Albuquerque Center
06:28PM 33.7411 -111.5942 217° Southwest 265 305 9,500 -780 Descending Albuquerque Center
06:29PM 33.6714 -111.6108 191° South 255 293 8,500 -780 Descending Albuquerque Center
06:30PM 33.6039 -111.6267 191° South 246 283 8,000 -780 Descending Albuquerque Center
06:31PM 33.5369 -111.6419 191° South 244 281 7,000 -960 Descending Albuquerque Center
06:32PM 33.4903 -111.6917 222° Southwest 240 276 6,100 -960 Descending Albuquerque Center
06:33PM 33.4536 -111.7725 241° Southwest 230 265 5,100 -1,320 Descending Albuquerque Center
06:34PM 33.4414 -111.8431 258° West 226 260 3,400 -1,320 Descending Albuquerque Center
06:35PM 33.4406 -111.9131 269° West 204 235 2,400 -900 Descending Albuquerque Center
06:36PM 33.4417 -111.9586 272° West 146 168 1,600 -660 Descending Albuquerque Center
06:37PM 33.4489 -112.0092 280° West 147 169 1,100 -540 Descending Albuquerque Center
06:39PM 33.4333 -112.0000 90° East  Level FlightAware Approximate